AirNav  
 
Fuel
  

F04 Saginaw Airport
Fort Worth, Texas, USA

GOING TO FORT WORTH?

Reserve a HOTEL

FAA INFORMATION EFFECTIVE 30 OCTOBER 2003

Location

FAA Identifier: F04
Lat/Long: 32-51-45.458N / 097-22-41.066W
32-51.75763N / 097-22.68443W
32.8626272 / -97.3780739
(estimated)
Elevation: 770 ft. / 235 m (estimated)
Variation: 07E (1985)
From city: 8 miles N of FORT WORTH, TX

Airport Operations

Airport use: Open to the public
Sectional chart: DALLAS-FT WORTH BUY IT NOW
Control tower: no
ARTCC: FORT WORTH CENTER
FSS: FORT WORTH FLIGHT SERVICE STATION [1-800-WX-BRIEF]
NOTAMs facility: FTW (NOTAM-D service available)
Attendance: DAYLIGHT HOURS
Wind indicator: lighted
Segmented circle: yes
Beacon: unknown

Airport Communications

CTAF: 122.9
WX ASOS at FTW (2.7 nm S): 120.70 (817-626-5811)
WX ASOS at AFW (8 nm N): 126.925 (817-491-8625)
WX ASOS at DFW (17 nm E): PHONE 972-453-0992
WX ASOS at GKY (19 nm SE): 127.375 (817-557-0251)
WX AWOS-3 at GPM (19 nm SE): 118.475 (972-606-1433)

Nearby radio navigation aids

VOR radial/distance  VOR name  Freq  Var
FUZr255/10.1RANGER VORTAC115.7006E
TTTr263/17.0MAVERICK VOR/DME113.1006E
CVEr260/23.9COWBOY VOR/DME116.2006E
MQPr066/32.3MILLSAP VORTAC117.7009E

 
NDB name  Hdg/Dist  Freq  Var  ID
MUFIN179/1.836508EFT ..-. -
CEDAR HILL301/26.035308ECDI -.-. -.. ..
REDBIRD288/27.928706ERBD .-. -... -..
MINERAL WELLS076/34.626606EMWL -- .-- .-..
LANCASTER291/37.323906ELNC .-.. -. -.-.

Airport Services

Fuel available: 100LL
Parking: tiedowns
Bottled oxygen: NONE
Bulk oxygen: NONE

Runway Information

Runway 18/36

Dimensions: 2600 x 30 ft. / 792 x 9 m
Surface: asphalt, in fair condition
GRASS & SOIL BUILDUP ALONG EDGES OF RY AND PONDING ON RY.
Weight limitations: 
Single wheel: 5000 lbs
Runway edge markings: /36 NRS ONLY; 12 FT TALL. DSPLCD THLD ARROWS ONLY 15 FT LONG.
RUNWAY 18  RUNWAY 36
Traffic pattern: rightleft
Displaced threshold: no250 ft.
Markings: NSTD, in good conditionNSTD, in good condition
Obstructions: 25 ft. brush, 750 ft. from runway, 25 ft. left of centerline, 22:1 slope to clear
5 FT FENCE POSTS 85 FT FM THLD ACROSS APCH; 20 FT TREES AT 85 FT & 40 FT L OF CNTRLN.
10 ft. tree, 375 ft. from runway, 33 ft. left of centerline, 17:1 slope to clear
+20 FT TREES 160 FT FM DSPLCD THLD 140 FT R OF CNTRLN; APCH SFC 8:1 BASED ON DSPLCD THLD.
4 FT FENCE 55 FT FM THLD ACROSS APCH; 15 FT ROAD 70 FT FM THLD ACROSS APCH; 21 FT TREES 100 FT FM THLD 35 FT R OF CNTRLN.

Airport Operational Statistics

Aircraft based on the field: 40
Single engine airplanes: 40
    
Aircraft operations: avg 39/week
98% local general aviation
2% transient general aviation

Additional Remarks

TFC PAT TO WEST OF FIELD.
(ARPT STATUS) ARPT CLSD PERMLY.
 
Loc | Ops | Rwys | FBO | Links
Com | Nav | Svcs | Stats | Notes
 
Area around F04 (Saginaw Airport)
 
No photo
 
Airport distance calculator
Flying to Saginaw Airport? Find the distance to fly.

From to F04

Sunrise and sunset
Times for 05-Dec-2003
 Local
(UTC-6)
 Zulu
(UTC)
Morning civil twilight06:5112:51
Sunrise07:1813:18
Sunset17:2223:22
Evening civil twilight17:4923:49
 
METAR
KFTW 052053Z 34017G23KT 10SM CLR 10/M13 A3040
KNFW 052055Z 34017G24KT 7SM SCT250 11/M12 A3042 RMK SLP299 8/001 T01111122 56028
KAFW 052053Z 34015KT 10SM FEW250 10/M13 A3040 RMK AO2 SLP300 T01001128 56027
KFWS 052105Z AUTO 34019G23KT 10SM CLR 11/M11 A3041 RMK AO2
KGKY 052053Z AUTO 33018G21KT 10SM CLR 11/M12 A3040 RMK AO2 SLP294 T01061122 56027
KDFW 052056Z 32020G23KT 10SM SCT300 11/M11 A3039
KGPM 052105Z AUTO 32017G23KT 10SM CLR 11/M12 A3040 RMK AO1
TAF
KFTW 040530Z 040606 VRB03KT P6SM SCT250
KDFW 040530Z 040606 VRB03KT P6SM SCT250

 
 

FBOs, Fuel Providers, and Aircraft Ground Support

 Business Name   Contact    Services / Description  Fuel Prices Comments
Bob Parker Aviation 817-232-1544
no information available   view  add
Update Fuel Prices
 

Where to Stay: Hotels, Motels, Resorts, B&Bs, Campgrounds

 In this space we feature lodging establishments that are convenient to the Saginaw Airport. If your hotel/inn/B&B/resort is near the Saginaw Airport, provides convenient transportation, or is otherwise attractive to pilots, flight crews, and airport users, consider listing it here.  
Feature A Hotel
 

Hotels near Saginaw Airport

Miles Price ($)
BLUE MOUND INN & SUITES 2.6 73-90
BW INN 3.8 58-109
BW LAKE WORTH INN AND SUITES 4.2 74-134
COMFORT INN NORTH 4.4 40-75
SUPER 8 FORT WORTH TX 4.5 53-75
HAMPTON INN MEACHAM I-35 4.5 66-76
LA QUINTA INN & STES FTW NORTHairport transportation 4.5 56-66
HOLIDAY INN FOSSIL CREEK 4.6 84-106
STUDIOPLUS FOSSIL CREEK 4.7 37-55
BRIDGESTREET PARK CREEK 5.0 100-135
FAIRFIELD N FOSSIL CREEK 5.2 50-89
MICROTEL INN & SUITES 5.2 50-66
COMFORT SUITES 5.2 130-149
COURTYARD N FOSSIL CREEK 5.2 58-125
CROSSLAND FT WORTH FOSSIL CREEK 5.3 35-45
STOCKYARDS HOTEL 5.4 109-169

Distances are approximate, and may vary depending on the actual route traveled and the location of the travel start on the airport.
airport transportation indicates that the hotel is reported to provide airport transportation. Please check with the hotel for hours and availability of transportation to/from Saginaw Airport. It is possible that transportation may not be available to/from F04 but to other nearby airports such as KDFW.
    

Hotels in other cities near Saginaw Airport

In White Settlement
In North Richland Hills
In North Richland Hills
In Fort Worth
In Fort Worth
In Hurst
In Bedford
In Westlake
In Forest Hill
In Euless
In Arlington
In Grapevine
In DFW Airport
 

Would you like to see your business listed on this page?

 If your business provides an interesting product or service to pilots, flight crews, aircraft, or users of the Saginaw Airport, you should consider listing it here.  To start the listing process, click on the button below
 
Add a business
 

Other Pages about Saginaw Airport

Add a link
 
Copyright © AirNav, LLC. All rights reserved. Privacy Policy  Contact